sensor_id;sensor_type;location;lat;lon;timestamp;P1;durP1;ratioP1;P2;durP2;ratioP2
2406;SDS011;37709;53.480;9.688;2022-11-25T00:01:19;30.57;;;15.80;;
2406;SDS011;37709;53.480;9.688;2022-11-25T00:03:49;28.17;;;14.07;;
2406;SDS011;37709;53.480;9.688;2022-11-25T00:08:48;24.23;;;14.30;;
2406;SDS011;37709;53.480;9.688;2022-11-25T00:11:17;25.67;;;14.83;;
2406;SDS011;37709;53.480;9.688;2022-11-25T00:13:45;32.70;;;16.93;;
2406;SDS011;37709;53.480;9.688;2022-11-25T00:16:14;26.93;;;13.67;;
2406;SDS011;37709;53.480;9.688;2022-11-25T00:18:44;25.77;;;14.83;;
2406;SDS011;37709;53.480;9.688;2022-11-25T00:21:13;28.07;;;15.30;;
2406;SDS011;37709;53.480;9.688;2022-11-25T00:23:42;27.27;;;14.80;;
2406;SDS011;37709;53.480;9.688;2022-11-25T00:28:42;28.80;;;16.00;;
2406;SDS011;37709;53.480;9.688;2022-11-25T00:31:15;26.27;;;14.77;;
2406;SDS011;37709;53.480;9.688;2022-11-25T00:33:45;24.20;;;14.67;;
2406;SDS011;37709;53.480;9.688;2022-11-25T00:36:14;22.87;;;14.27;;
2406;SDS011;37709;53.480;9.688;2022-11-25T00:38:46;21.43;;;14.30;;
2406;SDS011;37709;53.480;9.688;2022-11-25T00:41:22;25.10;;;15.10;;
2406;SDS011;37709;53.480;9.688;2022-11-25T00:44:09;24.73;;;14.70;;
2406;SDS011;37709;53.480;9.688;2022-11-25T00:46:57;25.37;;;14.50;;
2406;SDS011;37709;53.480;9.688;2022-11-25T00:49:26;25.40;;;14.60;;
2406;SDS011;37709;53.480;9.688;2022-11-25T00:51:53;20.97;;;13.70;;
2406;SDS011;37709;53.480;9.688;2022-11-25T00:54:21;20.87;;;14.00;;
2406;SDS011;37709;53.480;9.688;2022-11-25T00:56:49;23.00;;;14.00;;
2406;SDS011;37709;53.480;9.688;2022-11-25T00:59:17;24.70;;;13.37;;
2406;SDS011;37709;53.480;9.688;2022-11-25T01:01:44;27.07;;;12.97;;
2406;SDS011;37709;53.480;9.688;2022-11-25T01:04:12;25.90;;;14.47;;
2406;SDS011;37709;53.480;9.688;2022-11-25T01:06:40;29.73;;;14.77;;
2406;SDS011;37709;53.480;9.688;2022-11-25T01:09:08;24.03;;;13.70;;
2406;SDS011;37709;53.480;9.688;2022-11-25T01:11:37;23.00;;;14.20;;
2406;SDS011;37709;53.480;9.688;2022-11-25T01:14:05;24.60;;;13.70;;
2406;SDS011;37709;53.480;9.688;2022-11-25T01:16:33;25.87;;;12.90;;
2406;SDS011;37709;53.480;9.688;2022-11-25T01:19:01;22.80;;;12.23;;
2406;SDS011;37709;53.480;9.688;2022-11-25T01:21:30;23.80;;;12.00;;
2406;SDS011;37709;53.480;9.688;2022-11-25T01:23:59;24.70;;;13.60;;
2406;SDS011;37709;53.480;9.688;2022-11-25T01:26:28;22.60;;;12.70;;
2406;SDS011;37709;53.480;9.688;2022-11-25T01:28:57;23.37;;;13.23;;
2406;SDS011;37709;53.480;9.688;2022-11-25T01:31:27;23.37;;;12.73;;
2406;SDS011;37709;53.480;9.688;2022-11-25T01:33:58;22.53;;;11.33;;
2406;SDS011;37709;53.480;9.688;2022-11-25T01:36:34;21.20;;;12.63;;
2406;SDS011;37709;53.480;9.688;2022-11-25T01:39:02;21.27;;;12.00;;
2406;SDS011;37709;53.480;9.688;2022-11-25T01:41:30;21.27;;;12.80;;
2406;SDS011;37709;53.480;9.688;2022-11-25T01:44:05;24.33;;;12.30;;
2406;SDS011;37709;53.480;9.688;2022-11-25T01:46:42;27.50;;;13.53;;
2406;SDS011;37709;53.480;9.688;2022-11-25T01:49:20;23.63;;;12.37;;
2406;SDS011;37709;53.480;9.688;2022-11-25T01:51:54;24.73;;;11.90;;
2406;SDS011;37709;53.480;9.688;2022-11-25T01:54:28;24.33;;;11.63;;
2406;SDS011;37709;53.480;9.688;2022-11-25T01:57:03;20.20;;;11.60;;
2406;SDS011;37709;53.480;9.688;2022-11-25T01:59:34;20.50;;;11.70;;
2406;SDS011;37709;53.480;9.688;2022-11-25T02:02:05;21.50;;;10.70;;
2406;SDS011;37709;53.480;9.688;2022-11-25T02:04:34;22.80;;;12.60;;
2406;SDS011;37709;53.480;9.688;2022-11-25T02:07:18;19.80;;;11.33;;
2406;SDS011;37709;53.480;9.688;2022-11-25T02:09:51;22.30;;;12.00;;
2406;SDS011;37709;53.480;9.688;2022-11-25T02:12:22;19.07;;;11.00;;
2406;SDS011;37709;53.480;9.688;2022-11-25T02:14:49;13.93;;;9.50;;
2406;SDS011;37709;53.480;9.688;2022-11-25T02:17:17;19.77;;;10.70;;
2406;SDS011;37709;53.480;9.688;2022-11-25T02:22:21;16.30;;;11.07;;
2406;SDS011;37709;53.480;9.688;2022-11-25T02:25:09;15.97;;;10.40;;
2406;SDS011;37709;53.480;9.688;2022-11-25T02:27:42;25.40;;;10.90;;
2406;SDS011;37709;53.480;9.688;2022-11-25T02:30:11;17.17;;;10.37;;
2406;SDS011;37709;53.480;9.688;2022-11-25T02:32:44;17.70;;;10.20;;
2406;SDS011;37709;53.480;9.688;2022-11-25T02:35:20;17.40;;;9.27;;
2406;SDS011;37709;53.480;9.688;2022-11-25T02:37:49;17.17;;;9.70;;
2406;SDS011;37709;53.480;9.688;2022-11-25T02:40:18;22.23;;;10.20;;
2406;SDS011;37709;53.480;9.688;2022-11-25T02:42:46;19.60;;;11.50;;
2406;SDS011;37709;53.480;9.688;2022-11-25T02:45:16;18.10;;;10.27;;
2406;SDS011;37709;53.480;9.688;2022-11-25T02:47:48;20.30;;;9.60;;
2406;SDS011;37709;53.480;9.688;2022-11-25T02:50:15;21.40;;;9.90;;
2406;SDS011;37709;53.480;9.688;2022-11-25T02:52:42;18.40;;;9.40;;
2406;SDS011;37709;53.480;9.688;2022-11-25T02:55:10;15.70;;;9.67;;
2406;SDS011;37709;53.480;9.688;2022-11-25T02:57:38;19.37;;;10.00;;
2406;SDS011;37709;53.480;9.688;2022-11-25T03:00:05;16.70;;;9.53;;
2406;SDS011;37709;53.480;9.688;2022-11-25T03:02:33;14.83;;;8.50;;
2406;SDS011;37709;53.480;9.688;2022-11-25T03:05:01;12.60;;;8.47;;
2406;SDS011;37709;53.480;9.688;2022-11-25T03:07:28;17.47;;;8.33;;
2406;SDS011;37709;53.480;9.688;2022-11-25T03:09:58;18.90;;;8.43;;
2406;SDS011;37709;53.480;9.688;2022-11-25T03:12:25;13.63;;;8.27;;
2406;SDS011;37709;53.480;9.688;2022-11-25T03:14:56;14.50;;;6.90;;
2406;SDS011;37709;53.480;9.688;2022-11-25T03:17:23;16.00;;;7.40;;
2406;SDS011;37709;53.480;9.688;2022-11-25T03:19:51;12.40;;;7.07;;
2406;SDS011;37709;53.480;9.688;2022-11-25T03:22:18;13.07;;;8.70;;
2406;SDS011;37709;53.480;9.688;2022-11-25T03:24:45;11.53;;;7.50;;
2406;SDS011;37709;53.480;9.688;2022-11-25T03:27:12;16.07;;;8.20;;
2406;SDS011;37709;53.480;9.688;2022-11-25T03:29:40;17.43;;;8.40;;
2406;SDS011;37709;53.480;9.688;2022-11-25T03:32:07;15.13;;;8.07;;
2406;SDS011;37709;53.480;9.688;2022-11-25T03:34:37;16.47;;;8.20;;
2406;SDS011;37709;53.480;9.688;2022-11-25T03:37:04;14.03;;;8.30;;
2406;SDS011;37709;53.480;9.688;2022-11-25T03:39:33;16.60;;;8.30;;
2406;SDS011;37709;53.480;9.688;2022-11-25T03:42:00;19.03;;;9.03;;
2406;SDS011;37709;53.480;9.688;2022-11-25T03:44:28;15.10;;;7.73;;
2406;SDS011;37709;53.480;9.688;2022-11-25T03:46:57;16.03;;;8.03;;
2406;SDS011;37709;53.480;9.688;2022-11-25T03:49:25;13.33;;;7.57;;
2406;SDS011;37709;53.480;9.688;2022-11-25T03:51:53;13.37;;;7.80;;
2406;SDS011;37709;53.480;9.688;2022-11-25T03:54:20;12.40;;;7.33;;
2406;SDS011;37709;53.480;9.688;2022-11-25T03:57:06;12.77;;;6.93;;
2406;SDS011;37709;53.480;9.688;2022-11-25T03:59:34;14.63;;;7.13;;
2406;SDS011;37709;53.480;9.688;2022-11-25T04:02:01;9.53;;;6.50;;
2406;SDS011;37709;53.480;9.688;2022-11-25T04:04:30;11.53;;;6.90;;
2406;SDS011;37709;53.480;9.688;2022-11-25T04:06:57;13.53;;;7.50;;
2406;SDS011;37709;53.480;9.688;2022-11-25T04:09:24;17.17;;;6.90;;
2406;SDS011;37709;53.480;9.688;2022-11-25T04:11:53;13.60;;;7.83;;
2406;SDS011;37709;53.480;9.688;2022-11-25T04:14:48;12.00;;;7.50;;
2406;SDS011;37709;53.480;9.688;2022-11-25T04:17:16;11.50;;;6.50;;
2406;SDS011;37709;53.480;9.688;2022-11-25T04:19:44;11.67;;;6.93;;
2406;SDS011;37709;53.480;9.688;2022-11-25T04:22:12;11.80;;;7.00;;
2406;SDS011;37709;53.480;9.688;2022-11-25T04:24:42;14.43;;;7.43;;
2406;SDS011;37709;53.480;9.688;2022-11-25T04:27:13;12.27;;;7.23;;
2406;SDS011;37709;53.480;9.688;2022-11-25T04:29:41;13.77;;;6.83;;
2406;SDS011;37709;53.480;9.688;2022-11-25T04:32:10;14.43;;;6.17;;
2406;SDS011;37709;53.480;9.688;2022-11-25T04:34:37;10.43;;;6.67;;
2406;SDS011;37709;53.480;9.688;2022-11-25T04:37:05;11.90;;;7.00;;
2406;SDS011;37709;53.480;9.688;2022-11-25T04:39:32;10.67;;;6.00;;
2406;SDS011;37709;53.480;9.688;2022-11-25T04:42:07;10.93;;;5.97;;
2406;SDS011;37709;53.480;9.688;2022-11-25T04:44:53;16.50;;;7.00;;
2406;SDS011;37709;53.480;9.688;2022-11-25T04:47:42;10.87;;;6.67;;
2406;SDS011;37709;53.480;9.688;2022-11-25T04:50:15;10.50;;;6.40;;
2406;SDS011;37709;53.480;9.688;2022-11-25T04:52:53;10.50;;;5.70;;
2406;SDS011;37709;53.480;9.688;2022-11-25T04:55:22;10.00;;;6.40;;
2406;SDS011;37709;53.480;9.688;2022-11-25T04:57:49;12.77;;;6.23;;
2406;SDS011;37709;53.480;9.688;2022-11-25T05:00:18;13.70;;;6.57;;
2406;SDS011;37709;53.480;9.688;2022-11-25T05:02:47;10.97;;;5.40;;
2406;SDS011;37709;53.480;9.688;2022-11-25T05:05:18;8.30;;;5.20;;
2406;SDS011;37709;53.480;9.688;2022-11-25T05:07:45;11.73;;;5.93;;
2406;SDS011;37709;53.480;9.688;2022-11-25T05:10:13;15.73;;;6.43;;
2406;SDS011;37709;53.480;9.688;2022-11-25T05:12:44;10.23;;;6.53;;
2406;SDS011;37709;53.480;9.688;2022-11-25T05:15:16;13.27;;;6.70;;
2406;SDS011;37709;53.480;9.688;2022-11-25T05:17:45;10.23;;;6.00;;
2406;SDS011;37709;53.480;9.688;2022-11-25T05:20:17;13.23;;;7.30;;
2406;SDS011;37709;53.480;9.688;2022-11-25T05:22:45;15.97;;;6.50;;
2406;SDS011;37709;53.480;9.688;2022-11-25T05:25:18;9.00;;;5.60;;
2406;SDS011;37709;53.480;9.688;2022-11-25T05:28:02;11.80;;;6.13;;
2406;SDS011;37709;53.480;9.688;2022-11-25T05:30:29;14.53;;;6.70;;
2406;SDS011;37709;53.480;9.688;2022-11-25T05:32:58;9.93;;;6.00;;
2406;SDS011;37709;53.480;9.688;2022-11-25T05:35:26;11.03;;;5.83;;
2406;SDS011;37709;53.480;9.688;2022-11-25T05:37:53;12.40;;;5.80;;
2406;SDS011;37709;53.480;9.688;2022-11-25T05:40:21;10.90;;;5.87;;
2406;SDS011;37709;53.480;9.688;2022-11-25T05:42:58;10.67;;;5.10;;
2406;SDS011;37709;53.480;9.688;2022-11-25T05:45:28;14.40;;;6.20;;
2406;SDS011;37709;53.480;9.688;2022-11-25T05:47:56;11.67;;;5.50;;
2406;SDS011;37709;53.480;9.688;2022-11-25T05:50:26;12.35;;;7.70;;
2406;SDS011;37709;53.480;9.688;2022-11-25T05:53:08;10.43;;;5.77;;
2406;SDS011;37709;53.480;9.688;2022-11-25T05:55:37;12.93;;;5.20;;
2406;SDS011;37709;53.480;9.688;2022-11-25T05:58:11;10.47;;;6.00;;
2406;SDS011;37709;53.480;9.688;2022-11-25T06:00:41;6.83;;;4.70;;
2406;SDS011;37709;53.480;9.688;2022-11-25T06:03:09;6.93;;;4.73;;
2406;SDS011;37709;53.480;9.688;2022-11-25T06:05:37;9.10;;;5.77;;
2406;SDS011;37709;53.480;9.688;2022-11-25T06:08:04;10.63;;;5.60;;
2406;SDS011;37709;53.480;9.688;2022-11-25T06:10:31;7.10;;;4.43;;
2406;SDS011;37709;53.480;9.688;2022-11-25T06:12:59;9.43;;;5.10;;
2406;SDS011;37709;53.480;9.688;2022-11-25T06:15:27;8.17;;;5.33;;
2406;SDS011;37709;53.480;9.688;2022-11-25T06:17:56;9.52;;;5.88;;
2406;SDS011;37709;53.480;9.688;2022-11-25T06:20:25;11.82;;;6.57;;
2406;SDS011;37709;53.480;9.688;2022-11-25T06:22:52;12.40;;;5.70;;
2406;SDS011;37709;53.480;9.688;2022-11-25T06:25:26;6.90;;;4.87;;
2406;SDS011;37709;53.480;9.688;2022-11-25T06:27:53;10.83;;;5.70;;
2406;SDS011;37709;53.480;9.688;2022-11-25T06:30:40;10.55;;;6.25;;
2406;SDS011;37709;53.480;9.688;2022-11-25T06:33:17;9.90;;;5.43;;
2406;SDS011;37709;53.480;9.688;2022-11-25T06:35:46;8.20;;;5.10;;
2406;SDS011;37709;53.480;9.688;2022-11-25T06:38:13;9.97;;;5.20;;
2406;SDS011;37709;53.480;9.688;2022-11-25T06:40:40;10.50;;;4.90;;
2406;SDS011;37709;53.480;9.688;2022-11-25T06:43:08;9.67;;;5.20;;
2406;SDS011;37709;53.480;9.688;2022-11-25T06:45:35;13.10;;;4.97;;
2406;SDS011;37709;53.480;9.688;2022-11-25T06:48:02;8.50;;;4.33;;
2406;SDS011;37709;53.480;9.688;2022-11-25T06:50:30;9.90;;;6.30;;
2406;SDS011;37709;53.480;9.688;2022-11-25T06:52:59;7.30;;;4.80;;
2406;SDS011;37709;53.480;9.688;2022-11-25T06:55:26;10.23;;;4.97;;
2406;SDS011;37709;53.480;9.688;2022-11-25T06:57:54;11.85;;;5.80;;
2406;SDS011;37709;53.480;9.688;2022-11-25T07:00:41;10.70;;;5.83;;
2406;SDS011;37709;53.480;9.688;2022-11-25T07:03:09;6.60;;;4.40;;
2406;SDS011;37709;53.480;9.688;2022-11-25T07:05:36;7.23;;;4.10;;
2406;SDS011;37709;53.480;9.688;2022-11-25T07:08:04;9.40;;;4.97;;
2406;SDS011;37709;53.480;9.688;2022-11-25T07:10:32;6.43;;;4.00;;
2406;SDS011;37709;53.480;9.688;2022-11-25T07:12:59;5.43;;;4.40;;
2406;SDS011;37709;53.480;9.688;2022-11-25T07:15:27;8.50;;;4.63;;
2406;SDS011;37709;53.480;9.688;2022-11-25T07:17:55;5.50;;;4.00;;
2406;SDS011;37709;53.480;9.688;2022-11-25T07:20:22;5.23;;;3.40;;
2406;SDS011;37709;53.480;9.688;2022-11-25T07:22:50;9.40;;;4.37;;
2406;SDS011;37709;53.480;9.688;2022-11-25T07:25:18;8.00;;;4.20;;
2406;SDS011;37709;53.480;9.688;2022-11-25T07:27:45;6.80;;;4.47;;
2406;SDS011;37709;53.480;9.688;2022-11-25T07:30:13;13.40;;;5.80;;
2406;SDS011;37709;53.480;9.688;2022-11-25T07:33:00;14.73;;;5.30;;
2406;SDS011;37709;53.480;9.688;2022-11-25T07:35:28;11.30;;;4.70;;
2406;SDS011;37709;53.480;9.688;2022-11-25T07:37:56;9.60;;;4.03;;
2406;SDS011;37709;53.480;9.688;2022-11-25T07:40:23;6.97;;;4.37;;
2406;SDS011;37709;53.480;9.688;2022-11-25T07:42:50;11.07;;;4.00;;
2406;SDS011;37709;53.480;9.688;2022-11-25T07:45:23;8.52;;;3.70;;
2406;SDS011;37709;53.480;9.688;2022-11-25T07:47:57;8.00;;;3.90;;
2406;SDS011;37709;53.480;9.688;2022-11-25T07:50:25;12.83;;;4.17;;
2406;SDS011;37709;53.480;9.688;2022-11-25T07:52:52;6.13;;;3.93;;
2406;SDS011;37709;53.480;9.688;2022-11-25T07:55:19;5.40;;;3.53;;
2406;SDS011;37709;53.480;9.688;2022-11-25T07:57:46;7.20;;;3.67;;
2406;SDS011;37709;53.480;9.688;2022-11-25T08:00:14;7.57;;;4.30;;
2406;SDS011;37709;53.480;9.688;2022-11-25T08:02:42;7.50;;;3.47;;
2406;SDS011;37709;53.480;9.688;2022-11-25T08:05:09;8.80;;;4.40;;
2406;SDS011;37709;53.480;9.688;2022-11-25T08:07:37;7.20;;;3.00;;
2406;SDS011;37709;53.480;9.688;2022-11-25T08:10:06;5.47;;;3.73;;
2406;SDS011;37709;53.480;9.688;2022-11-25T08:12:34;6.70;;;2.93;;
2406;SDS011;37709;53.480;9.688;2022-11-25T08:15:01;6.30;;;3.60;;
2406;SDS011;37709;53.480;9.688;2022-11-25T08:17:30;9.40;;;3.27;;
2406;SDS011;37709;53.480;9.688;2022-11-25T08:19:58;12.83;;;3.77;;
2406;SDS011;37709;53.480;9.688;2022-11-25T08:22:26;5.10;;;3.63;;
2406;SDS011;37709;53.480;9.688;2022-11-25T08:24:54;7.03;;;4.30;;
2406;SDS011;37709;53.480;9.688;2022-11-25T08:27:21;9.27;;;4.43;;
2406;SDS011;37709;53.480;9.688;2022-11-25T08:29:49;9.93;;;3.53;;
2406;SDS011;37709;53.480;9.688;2022-11-25T08:32:17;6.53;;;3.90;;
2406;SDS011;37709;53.480;9.688;2022-11-25T08:34:44;7.33;;;3.70;;
2406;SDS011;37709;53.480;9.688;2022-11-25T08:37:12;11.03;;;4.07;;
2406;SDS011;37709;53.480;9.688;2022-11-25T08:39:39;7.47;;;4.17;;
2406;SDS011;37709;53.480;9.688;2022-11-25T08:42:22;8.53;;;4.50;;
2406;SDS011;37709;53.480;9.688;2022-11-25T08:44:50;6.67;;;3.07;;
2406;SDS011;37709;53.480;9.688;2022-11-25T08:47:19;7.20;;;4.90;;
2406;SDS011;37709;53.480;9.688;2022-11-25T08:49:51;12.48;;;4.60;;
2406;SDS011;37709;53.480;9.688;2022-11-25T08:52:20;13.53;;;4.70;;
2406;SDS011;37709;53.480;9.688;2022-11-25T08:54:48;6.67;;;3.43;;
2406;SDS011;37709;53.480;9.688;2022-11-25T09:00:08;10.85;;;5.28;;
2406;SDS011;37709;53.480;9.688;2022-11-25T09:02:36;9.93;;;4.80;;
2406;SDS011;37709;53.480;9.688;2022-11-25T09:05:04;7.20;;;3.10;;
2406;SDS011;37709;53.480;9.688;2022-11-25T09:07:31;11.33;;;3.80;;
2406;SDS011;37709;53.480;9.688;2022-11-25T09:09:59;15.33;;;5.43;;
2406;SDS011;37709;53.480;9.688;2022-11-25T09:12:26;10.20;;;4.17;;
2406;SDS011;37709;53.480;9.688;2022-11-25T09:14:53;7.93;;;3.90;;
2406;SDS011;37709;53.480;9.688;2022-11-25T09:17:20;15.37;;;5.30;;
2406;SDS011;37709;53.480;9.688;2022-11-25T09:19:48;14.00;;;5.00;;
2406;SDS011;37709;53.480;9.688;2022-11-25T09:22:15;7.70;;;4.00;;
2406;SDS011;37709;53.480;9.688;2022-11-25T09:24:45;10.40;;;4.30;;
2406;SDS011;37709;53.480;9.688;2022-11-25T09:27:12;14.77;;;5.70;;
2406;SDS011;37709;53.480;9.688;2022-11-25T09:29:39;9.02;;;4.85;;
2406;SDS011;37709;53.480;9.688;2022-11-25T09:32:07;9.90;;;4.40;;
2406;SDS011;37709;53.480;9.688;2022-11-25T09:34:34;12.10;;;4.70;;
2406;SDS011;37709;53.480;9.688;2022-11-25T09:37:02;13.50;;;5.17;;
2406;SDS011;37709;53.480;9.688;2022-11-25T09:39:29;12.53;;;5.20;;
2406;SDS011;37709;53.480;9.688;2022-11-25T09:42:03;14.03;;;5.30;;
2406;SDS011;37709;53.480;9.688;2022-11-25T09:45:26;8.60;;;5.00;;
2406;SDS011;37709;53.480;9.688;2022-11-25T09:48:31;14.50;;;4.93;;
2406;SDS011;37709;53.480;9.688;2022-11-25T09:51:21;11.87;;;5.77;;
2406;SDS011;37709;53.480;9.688;2022-11-25T09:54:11;13.20;;;5.97;;
2406;SDS011;37709;53.480;9.688;2022-11-25T09:59:24;13.83;;;5.53;;
2406;SDS011;37709;53.480;9.688;2022-11-25T10:02:02;10.73;;;5.97;;
2406;SDS011;37709;53.480;9.688;2022-11-25T10:04:41;11.40;;;6.07;;
2406;SDS011;37709;53.480;9.688;2022-11-25T10:07:17;11.83;;;4.93;;
2406;SDS011;37709;53.480;9.688;2022-11-25T10:09:47;10.30;;;5.23;;
2406;SDS011;37709;53.480;9.688;2022-11-25T10:14:49;18.48;;;8.40;;
2406;SDS011;37709;53.480;9.688;2022-11-25T10:17:24;14.77;;;7.00;;
2406;SDS011;37709;53.480;9.688;2022-11-25T10:20:05;11.47;;;6.30;;
2406;SDS011;37709;53.480;9.688;2022-11-25T10:23:07;15.18;;;6.60;;
2406;SDS011;37709;53.480;9.688;2022-11-25T10:25:38;12.00;;;6.17;;
2406;SDS011;37709;53.480;9.688;2022-11-25T10:28:19;14.53;;;6.63;;
2406;SDS011;37709;53.480;9.688;2022-11-25T10:31:04;15.83;;;6.63;;
2406;SDS011;37709;53.480;9.688;2022-11-25T10:33:39;14.77;;;7.00;;
2406;SDS011;37709;53.480;9.688;2022-11-25T10:36:22;14.43;;;6.47;;
2406;SDS011;37709;53.480;9.688;2022-11-25T10:39:12;13.73;;;6.20;;
2406;SDS011;37709;53.480;9.688;2022-11-25T10:41:54;19.67;;;6.27;;
2406;SDS011;37709;53.480;9.688;2022-11-25T10:44:34;11.73;;;5.40;;
2406;SDS011;37709;53.480;9.688;2022-11-25T10:47:25;10.95;;;6.30;;
2406;SDS011;37709;53.480;9.688;2022-11-25T10:50:16;14.93;;;6.87;;
2406;SDS011;37709;53.480;9.688;2022-11-25T10:53:10;17.17;;;6.30;;
2406;SDS011;37709;53.480;9.688;2022-11-25T10:56:00;18.73;;;9.10;;
2406;SDS011;37709;53.480;9.688;2022-11-25T10:58:34;13.60;;;6.57;;
2406;SDS011;37709;53.480;9.688;2022-11-25T11:01:06;13.37;;;6.97;;
2406;SDS011;37709;53.480;9.688;2022-11-25T11:03:38;19.15;;;8.10;;
2406;SDS011;37709;53.480;9.688;2022-11-25T11:06:09;15.27;;;7.00;;
2406;SDS011;37709;53.480;9.688;2022-11-25T11:09:02;14.30;;;6.63;;
2406;SDS011;37709;53.480;9.688;2022-11-25T11:11:30;15.07;;;6.90;;
2406;SDS011;37709;53.480;9.688;2022-11-25T11:16:37;14.77;;;5.77;;
2406;SDS011;37709;53.480;9.688;2022-11-25T11:19:21;12.43;;;5.97;;
2406;SDS011;37709;53.480;9.688;2022-11-25T11:21:50;14.57;;;5.73;;
2406;SDS011;37709;53.480;9.688;2022-11-25T11:24:22;17.33;;;6.47;;
2406;SDS011;37709;53.480;9.688;2022-11-25T11:27:28;16.07;;;6.63;;
2406;SDS011;37709;53.480;9.688;2022-11-25T11:33:02;11.77;;;5.10;;
2406;SDS011;37709;53.480;9.688;2022-11-25T11:38:30;10.63;;;5.97;;
2406;SDS011;37709;53.480;9.688;2022-11-25T11:41:23;12.50;;;5.80;;
2406;SDS011;37709;53.480;9.688;2022-11-25T11:47:00;20.40;;;7.37;;
2406;SDS011;37709;53.480;9.688;2022-11-25T11:52:42;16.00;;;6.50;;
2406;SDS011;37709;53.480;9.688;2022-11-25T11:55:26;11.27;;;6.90;;
2406;SDS011;37709;53.480;9.688;2022-11-25T11:58:37;15.18;;;8.38;;
2406;SDS011;37709;53.480;9.688;2022-11-25T12:03:58;11.07;;;6.50;;
2406;SDS011;37709;53.480;9.688;2022-11-25T12:06:33;11.43;;;6.20;;
2406;SDS011;37709;53.480;9.688;2022-11-25T12:09:08;13.37;;;6.83;;
2406;SDS011;37709;53.480;9.688;2022-11-25T12:11:42;13.80;;;6.03;;
2406;SDS011;37709;53.480;9.688;2022-11-25T12:14:19;12.60;;;5.60;;
2406;SDS011;37709;53.480;9.688;2022-11-25T12:17:06;11.37;;;5.37;;
2406;SDS011;37709;53.480;9.688;2022-11-25T12:19:57;9.50;;;5.60;;
2406;SDS011;37709;53.480;9.688;2022-11-25T12:23:17;18.00;;;6.23;;
2406;SDS011;37709;53.480;9.688;2022-11-25T12:25:40;10.30;;;5.37;;
2406;SDS011;37709;53.480;9.688;2022-11-25T12:28:21;11.13;;;6.60;;
2406;SDS011;37709;53.480;9.688;2022-11-25T12:31:01;11.90;;;5.63;;
2406;SDS011;37709;53.480;9.688;2022-11-25T12:36:33;7.03;;;4.80;;
2406;SDS011;37709;53.480;9.688;2022-11-25T12:41:59;13.50;;;5.63;;
2406;SDS011;37709;53.480;9.688;2022-11-25T12:44:29;12.37;;;5.47;;
2406;SDS011;37709;53.480;9.688;2022-11-25T12:47:09;10.10;;;5.10;;
2406;SDS011;37709;53.480;9.688;2022-11-25T12:49:40;15.43;;;7.88;;
2406;SDS011;37709;53.480;9.688;2022-11-25T12:52:19;12.70;;;7.50;;
2406;SDS011;37709;53.480;9.688;2022-11-25T12:55:24;14.10;;;6.70;;
2406;SDS011;37709;53.480;9.688;2022-11-25T13:04:02;17.37;;;6.77;;
2406;SDS011;37709;53.480;9.688;2022-11-25T13:09:39;11.23;;;6.03;;
2406;SDS011;37709;53.480;9.688;2022-11-25T13:15:32;10.67;;;6.30;;
2406;SDS011;37709;53.480;9.688;2022-11-25T13:18:17;11.70;;;5.53;;
2406;SDS011;37709;53.480;9.688;2022-11-25T13:20:49;13.03;;;6.57;;
2406;SDS011;37709;53.480;9.688;2022-11-25T13:23:24;12.10;;;6.33;;
2406;SDS011;37709;53.480;9.688;2022-11-25T13:26:00;10.23;;;6.40;;
2406;SDS011;37709;53.480;9.688;2022-11-25T13:28:55;8.60;;;5.90;;
2406;SDS011;37709;53.480;9.688;2022-11-25T13:31:23;8.70;;;5.33;;
2406;SDS011;37709;53.480;9.688;2022-11-25T13:36:24;12.57;;;6.40;;
2406;SDS011;37709;53.480;9.688;2022-11-25T13:39:17;17.07;;;7.27;;
2406;SDS011;37709;53.480;9.688;2022-11-25T13:41:58;8.30;;;5.47;;
2406;SDS011;37709;53.480;9.688;2022-11-25T13:44:49;18.87;;;7.03;;
2406;SDS011;37709;53.480;9.688;2022-11-25T13:50:22;9.63;;;6.13;;
2406;SDS011;37709;53.480;9.688;2022-11-25T13:53:20;9.07;;;6.20;;
2406;SDS011;37709;53.480;9.688;2022-11-25T13:55:50;8.50;;;6.40;;
2406;SDS011;37709;53.480;9.688;2022-11-25T13:58:22;11.57;;;6.17;;
2406;SDS011;37709;53.480;9.688;2022-11-25T14:01:00;11.43;;;6.00;;
2406;SDS011;37709;53.480;9.688;2022-11-25T14:03:54;11.40;;;6.17;;
2406;SDS011;37709;53.480;9.688;2022-11-25T14:06:28;13.67;;;6.37;;
2406;SDS011;37709;53.480;9.688;2022-11-25T14:12:26;12.63;;;7.30;;
2406;SDS011;37709;53.480;9.688;2022-11-25T14:15:18;13.73;;;8.80;;
2406;SDS011;37709;53.480;9.688;2022-11-25T14:20:37;12.27;;;8.97;;
2406;SDS011;37709;53.480;9.688;2022-11-25T14:23:32;13.10;;;10.00;;
2406;SDS011;37709;53.480;9.688;2022-11-25T14:26:11;14.10;;;9.50;;
2406;SDS011;37709;53.480;9.688;2022-11-25T14:29:21;12.50;;;8.90;;
2406;SDS011;37709;53.480;9.688;2022-11-25T14:31:58;17.20;;;9.97;;
2406;SDS011;37709;53.480;9.688;2022-11-25T14:34:45;13.13;;;8.33;;
2406;SDS011;37709;53.480;9.688;2022-11-25T14:38:02;16.43;;;11.97;;
2406;SDS011;37709;53.480;9.688;2022-11-25T14:40:14;18.33;;;9.33;;
2406;SDS011;37709;53.480;9.688;2022-11-25T14:42:44;13.57;;;9.33;;
2406;SDS011;37709;53.480;9.688;2022-11-25T14:45:21;16.07;;;10.43;;
2406;SDS011;37709;53.480;9.688;2022-11-25T14:47:56;14.93;;;10.63;;
2406;SDS011;37709;53.480;9.688;2022-11-25T14:50:23;15.07;;;10.00;;
2406;SDS011;37709;53.480;9.688;2022-11-25T14:53:07;13.00;;;8.40;;
2406;SDS011;37709;53.480;9.688;2022-11-25T14:55:35;17.43;;;11.27;;
2406;SDS011;37709;53.480;9.688;2022-11-25T14:58:03;17.70;;;10.27;;
2406;SDS011;37709;53.480;9.688;2022-11-25T15:00:30;13.63;;;9.80;;
2406;SDS011;37709;53.480;9.688;2022-11-25T15:02:59;14.00;;;10.63;;
2406;SDS011;37709;53.480;9.688;2022-11-25T15:05:36;18.30;;;10.70;;
2406;SDS011;37709;53.480;9.688;2022-11-25T15:08:09;14.37;;;10.80;;
2406;SDS011;37709;53.480;9.688;2022-11-25T15:10:40;17.90;;;10.80;;
2406;SDS011;37709;53.480;9.688;2022-11-25T15:13:32;18.10;;;12.37;;
2406;SDS011;37709;53.480;9.688;2022-11-25T15:18:52;17.00;;;11.10;;
2406;SDS011;37709;53.480;9.688;2022-11-25T15:24:28;18.43;;;11.27;;
2406;SDS011;37709;53.480;9.688;2022-11-25T15:26:59;18.00;;;11.67;;
2406;SDS011;37709;53.480;9.688;2022-11-25T15:29:28;16.57;;;12.10;;
2406;SDS011;37709;53.480;9.688;2022-11-25T15:31:57;18.40;;;11.97;;
2406;SDS011;37709;53.480;9.688;2022-11-25T15:34:25;15.43;;;12.77;;
2406;SDS011;37709;53.480;9.688;2022-11-25T15:36:59;19.07;;;13.00;;
2406;SDS011;37709;53.480;9.688;2022-11-25T15:39:27;17.13;;;12.37;;
2406;SDS011;37709;53.480;9.688;2022-11-25T15:44:37;19.47;;;12.80;;
2406;SDS011;37709;53.480;9.688;2022-11-25T15:47:19;17.53;;;12.83;;
2406;SDS011;37709;53.480;9.688;2022-11-25T15:49:56;14.80;;;11.73;;
2406;SDS011;37709;53.480;9.688;2022-11-25T15:52:28;22.87;;;13.50;;
2406;SDS011;37709;53.480;9.688;2022-11-25T15:54:59;20.67;;;12.83;;
2406;SDS011;37709;53.480;9.688;2022-11-25T15:57:31;15.43;;;13.53;;
2406;SDS011;37709;53.480;9.688;2022-11-25T16:00:03;22.73;;;13.73;;
2406;SDS011;37709;53.480;9.688;2022-11-25T16:10:17;18.30;;;13.30;;
2406;SDS011;37709;53.480;9.688;2022-11-25T16:13:14;19.07;;;13.27;;
2406;SDS011;37709;53.480;9.688;2022-11-25T16:15:50;19.17;;;11.60;;
2406;SDS011;37709;53.480;9.688;2022-11-25T16:18:23;17.00;;;12.73;;
2406;SDS011;37709;53.480;9.688;2022-11-25T16:21:07;18.80;;;15.10;;
2406;SDS011;37709;53.480;9.688;2022-11-25T16:23:48;21.00;;;13.60;;
2406;SDS011;37709;53.480;9.688;2022-11-25T16:26:21;24.47;;;15.23;;
2406;SDS011;37709;53.480;9.688;2022-11-25T16:28:57;23.60;;;13.70;;
2406;SDS011;37709;53.480;9.688;2022-11-25T16:31:27;21.70;;;14.10;;
2406;SDS011;37709;53.480;9.688;2022-11-25T16:33:55;22.50;;;15.13;;
2406;SDS011;37709;53.480;9.688;2022-11-25T16:36:41;22.03;;;14.80;;
2406;SDS011;37709;53.480;9.688;2022-11-25T16:39:08;22.27;;;14.90;;
2406;SDS011;37709;53.480;9.688;2022-11-25T16:41:36;20.90;;;15.77;;